createdAt,value
2018-03-02T00:00:39.678Z,16.53
2018-03-02T00:03:07.186Z,16.70
2018-03-02T00:05:35.503Z,15.43
2018-03-02T00:08:04.031Z,16.63
2018-03-02T00:10:31.547Z,15.50
2018-03-02T00:12:59.067Z,15.40
2018-03-02T00:15:27.343Z,16.60
2018-03-02T00:17:55.634Z,17.70
2018-03-02T00:20:23.159Z,17.73
2018-03-02T00:22:50.695Z,17.03
2018-03-02T00:25:18.207Z,15.20
2018-03-02T00:27:45.739Z,15.57
2018-03-02T00:30:13.263Z,15.97
2018-03-02T00:32:40.801Z,16.37
2018-03-02T00:35:08.325Z,17.40
2018-03-02T00:37:35.832Z,16.40
2018-03-02T00:40:03.372Z,16.70
2018-03-02T00:42:30.891Z,17.30
2018-03-02T00:44:58.406Z,16.53
2018-03-02T00:47:25.948Z,14.83
2018-03-02T00:49:53.474Z,17.17
2018-03-02T00:52:21.006Z,17.63
2018-03-02T00:54:48.577Z,16.60
2018-03-02T00:57:16.107Z,14.20
2018-03-02T00:59:43.622Z,15.07
2018-03-02T01:02:11.891Z,17.37
2018-03-02T01:04:39.418Z,15.53
2018-03-02T01:07:06.939Z,16.07
2018-03-02T01:09:34.483Z,16.97
2018-03-02T01:12:02.771Z,13.47
2018-03-02T01:14:30.357Z,17.30
2018-03-02T01:16:57.871Z,16.70
2018-03-02T01:19:26.142Z,17.40
2018-03-02T01:21:53.663Z,16.80
2018-03-02T01:24:21.178Z,16.33
2018-03-02T01:26:49.466Z,16.17
2018-03-02T01:29:17.046Z,16.87
2018-03-02T01:31:44.574Z,17.37
2018-03-02T01:34:12.854Z,17.33
2018-03-02T01:36:41.206Z,17.13
2018-03-02T01:39:08.730Z,17.53
2018-03-02T01:41:36.250Z,17.97
2018-03-02T01:44:04.580Z,16.20
2018-03-02T01:46:32.091Z,17.23
2018-03-02T01:48:59.639Z,18.60
2018-03-02T01:51:39.878Z,18.80
2018-03-02T01:54:08.205Z,17.73
2018-03-02T01:56:35.723Z,19.30
2018-03-02T01:59:04.000Z,17.20
2018-03-02T02:01:32.296Z,17.33
2018-03-02T02:04:00.582Z,18.70
2018-03-02T02:06:28.142Z,19.00
2018-03-02T02:08:55.662Z,17.63
2018-03-02T02:11:23.988Z,19.00
2018-03-02T02:13:51.498Z,16.83
2018-03-02T02:16:19.019Z,18.13
2018-03-02T02:18:46.539Z,17.60
2018-03-02T02:21:14.813Z,18.30
2018-03-02T02:23:43.104Z,17.53
2018-03-02T02:26:11.385Z,16.47
2018-03-02T02:28:38.939Z,15.30
2018-03-02T02:31:07.217Z,18.00
2018-03-02T02:33:34.747Z,17.83
2018-03-02T02:36:02.272Z,17.70
2018-03-02T02:38:29.790Z,18.60
2018-03-02T02:40:58.087Z,17.87
2018-03-02T02:43:25.609Z,19.20
2018-03-02T02:45:53.142Z,17.80
2018-03-02T02:48:20.639Z,19.20
2018-03-02T02:50:48.952Z,18.67
2018-03-02T02:53:16.542Z,17.00
2018-03-02T02:55:44.050Z,19.93
2018-03-02T02:58:11.642Z,19.10
2018-03-02T03:00:39.161Z,19.40
2018-03-02T03:03:06.695Z,19.40
2018-03-02T03:05:34.223Z,19.70
2018-03-02T03:08:01.741Z,18.30
2018-03-02T03:10:30.035Z,20.73
2018-03-02T03:12:57.546Z,17.10
2018-03-02T03:15:25.057Z,19.50
2018-03-02T03:17:52.578Z,18.43
2018-03-02T03:20:20.095Z,19.43
2018-03-02T03:22:49.356Z,17.53
2018-03-02T03:25:17.630Z,20.10
2018-03-02T03:27:45.902Z,19.73
2018-03-02T03:30:14.215Z,18.80
2018-03-02T03:32:41.745Z,20.13
2018-03-02T03:35:10.046Z,19.33
2018-03-02T03:37:37.554Z,20.43
2018-03-02T03:40:05.073Z,20.60
2018-03-02T03:42:32.592Z,20.87
2018-03-02T03:45:00.879Z,18.97
2018-03-02T03:47:28.422Z,20.97
2018-03-02T03:49:56.703Z,20.67
2018-03-02T03:52:24.980Z,18.13
2018-03-02T03:54:53.295Z,20.47
2018-03-02T03:57:20.822Z,20.87
2018-03-02T03:59:49.198Z,19.57
2018-03-02T04:02:17.491Z,19.50
2018-03-02T04:04:45.019Z,19.30
2018-03-02T04:07:12.538Z,20.33
2018-03-02T04:09:40.042Z,19.03
2018-03-02T04:12:08.343Z,21.37
2018-03-02T04:14:35.876Z,20.30
2018-03-02T04:17:04.214Z,21.60
2018-03-02T04:19:31.740Z,18.10
2018-03-02T04:21:59.282Z,19.17
2018-03-02T04:24:27.554Z,19.40
2018-03-02T04:26:55.839Z,21.17
2018-03-02T04:29:24.166Z,17.60
2018-03-02T04:31:51.680Z,20.03
2018-03-02T04:34:19.962Z,20.30
2018-03-02T04:36:48.230Z,21.70
2018-03-02T04:39:17.370Z,17.70
2018-03-02T04:41:44.888Z,20.17
2018-03-02T04:44:13.195Z,20.60
2018-03-02T04:46:40.707Z,19.33
2018-03-02T04:49:08.218Z,19.17
2018-03-02T04:51:35.823Z,18.20
2018-03-02T04:54:03.408Z,19.30
2018-03-02T04:56:31.694Z,21.67
2018-03-02T04:58:59.231Z,19.97
2018-03-02T05:01:27.544Z,21.60
2018-03-02T05:03:55.060Z,20.90
2018-03-02T05:06:22.640Z,20.80
2018-03-02T05:08:50.911Z,20.60
2018-03-02T05:11:19.192Z,22.17
2018-03-02T05:13:47.479Z,20.47
2018-03-02T05:16:15.760Z,21.40
2018-03-02T05:18:43.291Z,20.53
2018-03-02T05:21:10.851Z,21.53
2018-03-02T05:23:38.457Z,22.00
2018-03-02T05:26:06.990Z,21.70
2018-03-02T05:28:34.517Z,21.90
2018-03-02T05:31:02.027Z,19.43
2018-03-02T05:33:30.338Z,21.73
2018-03-02T05:35:57.857Z,21.10
2018-03-02T05:38:26.125Z,23.23
2018-03-02T05:40:54.422Z,21.17
2018-03-02T05:43:22.702Z,21.50
2018-03-02T05:45:51.134Z,20.40
2018-03-02T05:48:18.602Z,21.03
2018-03-02T05:50:46.132Z,20.83
2018-03-02T05:53:13.672Z,22.10
2018-03-02T05:55:41.191Z,23.13
2018-03-02T05:58:08.739Z,20.47
2018-03-02T06:00:36.262Z,18.07
2018-03-02T06:03:03.787Z,20.57
2018-03-02T06:05:32.071Z,23.40
2018-03-02T06:07:59.603Z,22.80
2018-03-02T06:10:27.109Z,21.27
2018-03-02T06:12:54.614Z,24.33
2018-03-02T06:15:22.152Z,23.33
2018-03-02T06:17:49.662Z,20.60
2018-03-02T06:20:17.961Z,23.33
2018-03-02T06:22:45.535Z,22.50
2018-03-02T06:25:13.783Z,22.90
2018-03-02T06:27:41.310Z,23.13
2018-03-02T06:30:09.582Z,23.23
2018-03-02T06:32:37.102Z,24.27
2018-03-02T06:35:04.620Z,23.60
2018-03-02T06:37:32.901Z,24.30
2018-03-02T06:40:01.183Z,21.63
2018-03-02T06:42:29.473Z,22.50
2018-03-02T06:44:56.986Z,23.53
2018-03-02T06:47:24.555Z,23.40
2018-03-02T06:49:52.086Z,21.40
2018-03-02T06:52:19.590Z,22.07
2018-03-02T06:54:47.882Z,23.33
2018-03-02T06:57:15.516Z,22.43
2018-03-02T06:59:43.038Z,22.17
2018-03-02T07:02:10.542Z,24.30
2018-03-02T07:04:38.873Z,22.47
2018-03-02T07:07:06.416Z,23.73
2018-03-02T07:09:33.942Z,22.97
2018-03-02T07:12:02.238Z,23.57
2018-03-02T07:14:29.752Z,21.80
2018-03-02T07:16:57.262Z,24.57
2018-03-02T07:19:24.775Z,22.70
2018-03-02T07:21:52.295Z,24.37
2018-03-02T07:24:19.857Z,23.10
2018-03-02T07:26:48.416Z,22.63
2018-03-02T07:29:15.942Z,22.73
2018-03-02T07:31:43.479Z,23.17
2018-03-02T07:34:11.014Z,23.50
2018-03-02T07:36:38.523Z,24.60
2018-03-02T07:39:06.046Z,24.83
2018-03-02T07:41:33.555Z,23.77
2018-03-02T07:44:01.841Z,19.50
2018-03-02T07:46:29.357Z,24.07
2018-03-02T07:48:56.870Z,20.93
2018-03-02T07:51:24.435Z,21.03
2018-03-02T07:53:51.976Z,23.70
2018-03-02T07:56:20.251Z,22.87
2018-03-02T07:58:48.523Z,24.00
2018-03-02T08:01:16.802Z,23.00
2018-03-02T08:03:45.701Z,20.57
2018-03-02T08:06:13.990Z,23.97
2018-03-02T08:08:41.502Z,23.27
2018-03-02T08:11:09.052Z,24.50
2018-03-02T08:13:36.549Z,19.50
2018-03-02T08:16:04.819Z,23.87
2018-03-02T08:18:33.140Z,25.27
2018-03-02T08:21:00.642Z,21.23
2018-03-02T08:23:28.170Z,21.47
2018-03-02T08:25:55.674Z,24.90
2018-03-02T08:28:23.970Z,24.50
2018-03-02T08:30:51.856Z,23.60
2018-03-02T08:33:19.358Z,23.63
2018-03-02T08:35:46.874Z,23.40
2018-03-02T08:38:14.377Z,23.83
2018-03-02T08:40:41.901Z,22.37
2018-03-02T08:43:10.206Z,24.83
2018-03-02T08:45:37.831Z,23.47
2018-03-02T08:48:06.362Z,23.63
2018-03-02T08:50:33.858Z,23.73
2018-03-02T08:53:01.426Z,23.53
2018-03-02T08:55:28.933Z,24.20
2018-03-02T08:57:56.537Z,23.63
2018-03-02T09:00:24.094Z,24.77
2018-03-02T09:02:51.871Z,23.77
2018-03-02T09:05:19.377Z,25.17
2018-03-02T09:07:46.893Z,21.87
2018-03-02T09:10:14.454Z,24.43
2018-03-02T09:12:41.961Z,23.27
2018-03-02T09:15:09.573Z,22.40
2018-03-02T09:17:37.081Z,24.70
2018-03-02T09:20:04.615Z,23.33
2018-03-02T09:22:32.121Z,25.40
2018-03-02T09:25:00.411Z,23.73
2018-03-02T09:27:28.296Z,23.23
2018-03-02T09:29:55.825Z,23.27
2018-03-02T09:32:24.134Z,26.00
2018-03-02T09:34:51.639Z,25.93
2018-03-02T09:37:19.182Z,23.50
2018-03-02T09:39:46.675Z,22.97
2018-03-02T09:42:14.959Z,24.00
2018-03-02T09:44:43.226Z,24.93
2018-03-02T09:47:11.502Z,24.33
2018-03-02T09:49:39.778Z,25.23
2018-03-02T09:52:08.082Z,25.10
2018-03-02T09:54:35.597Z,24.10
2018-03-02T09:57:03.104Z,21.83
2018-03-02T09:59:30.617Z,24.60
2018-03-02T10:01:58.114Z,23.93
2018-03-02T10:04:25.675Z,23.60
2018-03-02T10:06:53.188Z,22.93
2018-03-02T10:09:20.710Z,24.73
2018-03-02T10:11:48.255Z,24.73
2018-03-02T10:14:15.788Z,28.03
2018-03-02T10:16:44.103Z,24.77
2018-03-02T10:19:11.606Z,25.07
2018-03-02T10:21:39.122Z,24.60
2018-03-02T10:24:06.726Z,25.40
2018-03-02T10:26:34.241Z,23.97
2018-03-02T10:29:01.743Z,25.00
2018-03-02T10:31:29.253Z,24.97
2018-03-02T10:33:56.782Z,24.37
2018-03-02T10:36:25.074Z,25.67
2018-03-02T10:38:52.589Z,25.50
2018-03-02T10:41:20.091Z,25.77
2018-03-02T10:43:47.645Z,26.50
2018-03-02T10:46:15.906Z,27.17
2018-03-02T10:48:43.423Z,24.27
2018-03-02T10:51:10.945Z,24.00
2018-03-02T10:53:38.479Z,26.50
2018-03-02T10:56:06.737Z,25.70
2018-03-02T10:58:34.260Z,24.80
2018-03-02T11:01:16.593Z,28.37
2018-03-02T11:03:47.930Z,23.93
2018-03-02T11:06:15.470Z,24.07
2018-03-02T11:08:42.970Z,25.13
2018-03-02T11:11:10.493Z,24.07
2018-03-02T11:13:37.988Z,24.37
2018-03-02T11:16:05.499Z,24.87
2018-03-02T11:18:33.014Z,23.67
2018-03-02T11:21:02.040Z,24.70
2018-03-02T11:23:30.322Z,24.57
2018-03-02T11:25:57.861Z,24.97
2018-03-02T11:28:26.130Z,23.93
2018-03-02T11:30:54.418Z,26.27
2018-03-02T11:33:22.706Z,23.00
2018-03-02T11:35:50.970Z,25.50
2018-03-02T11:38:19.250Z,25.07
2018-03-02T11:40:47.502Z,25.07
2018-03-02T11:43:15.051Z,25.23
2018-03-02T11:45:42.550Z,25.33
2018-03-02T11:48:10.821Z,24.93
2018-03-02T11:50:39.078Z,25.57
2018-03-02T11:53:06.589Z,26.00
2018-03-02T11:55:34.084Z,26.00
2018-03-02T11:58:01.586Z,25.17
2018-03-02T12:00:29.870Z,24.40
2018-03-02T12:02:57.374Z,24.07
2018-03-02T12:05:25.023Z,24.70
2018-03-02T12:07:52.522Z,24.37
2018-03-02T12:10:20.806Z,25.50
2018-03-02T12:12:49.087Z,24.60
2018-03-02T12:15:17.407Z,24.80
2018-03-02T12:17:44.900Z,25.50
2018-03-02T12:20:12.514Z,24.60
2018-03-02T12:22:40.127Z,26.20
2018-03-02T12:25:07.636Z,25.73
2018-03-02T12:27:35.157Z,24.70
2018-03-02T12:30:03.434Z,24.90
2018-03-02T12:32:31.717Z,23.07
2018-03-02T12:34:59.987Z,24.70
2018-03-02T12:37:28.274Z,26.50
2018-03-02T12:39:56.543Z,24.83
2018-03-02T12:42:24.802Z,26.70
2018-03-02T12:44:53.161Z,25.70
2018-03-02T12:47:20.666Z,26.77
2018-03-02T12:49:48.945Z,25.97
2018-03-02T12:52:17.213Z,25.50
2018-03-02T12:54:45.517Z,27.67
2018-03-02T12:57:13.058Z,25.67
2018-03-02T12:59:41.334Z,23.83
2018-03-02T13:02:09.631Z,26.70
2018-03-02T13:04:37.135Z,25.03
2018-03-02T13:07:04.706Z,26.30
2018-03-02T13:09:32.234Z,24.77
2018-03-02T13:11:59.750Z,25.57
2018-03-02T13:14:28.022Z,24.73
2018-03-02T13:16:56.335Z,24.73
2018-03-02T13:19:23.826Z,25.70
2018-03-02T13:21:51.314Z,24.30
2018-03-02T13:24:19.604Z,24.80
2018-03-02T13:26:58.970Z,25.60
2018-03-02T13:29:26.589Z,25.33
2018-03-02T13:31:54.131Z,26.20
2018-03-02T13:34:33.375Z,25.30
2018-03-02T13:37:01.639Z,23.17
2018-03-02T13:39:40.969Z,24.23
2018-03-02T13:42:10.299Z,26.20
2018-03-02T13:44:38.599Z,27.40
2018-03-02T13:47:07.042Z,28.40
2018-03-02T13:49:46.399Z,24.13
2018-03-02T13:52:14.670Z,24.80
2018-03-02T13:54:42.981Z,23.83
2018-03-02T13:57:22.404Z,27.00
2018-03-02T13:59:49.950Z,24.53
2018-03-02T14:02:30.186Z,24.23
2018-03-02T14:05:03.456Z,24.77
2018-03-02T14:07:32.173Z,25.63
2018-03-02T14:10:00.465Z,27.17
2018-03-02T14:12:28.750Z,25.57
2018-03-02T14:14:56.329Z,25.90
2018-03-02T14:17:24.210Z,27.10
2018-03-02T14:19:51.711Z,27.67
2018-03-02T14:22:20.587Z,25.70
2018-03-02T14:24:48.206Z,26.40
2018-03-02T14:27:15.707Z,24.67
2018-03-02T14:29:43.270Z,25.63
2018-03-02T14:32:10.772Z,26.77
2018-03-02T14:34:38.314Z,25.50
2018-03-02T14:37:06.592Z,27.70
2018-03-02T14:39:34.903Z,25.97
2018-03-02T14:42:02.437Z,25.90
2018-03-02T14:44:30.816Z,25.60
2018-03-02T14:46:58.358Z,25.37
2018-03-02T14:49:26.645Z,24.77
2018-03-02T14:51:54.932Z,28.10
2018-03-02T14:54:22.450Z,25.63
2018-03-02T14:56:50.036Z,26.23
2018-03-02T14:59:18.298Z,28.60
2018-03-02T15:01:45.867Z,27.50
2018-03-02T15:04:14.162Z,27.97
2018-03-02T15:06:41.702Z,26.40
2018-03-02T15:09:09.237Z,26.50
2018-03-02T15:11:36.871Z,26.90
2018-03-02T15:14:04.392Z,27.53
2018-03-02T15:16:31.982Z,27.10
2018-03-02T15:18:59.516Z,27.17
2018-03-02T15:21:27.056Z,26.80
2018-03-02T15:23:55.355Z,29.30
2018-03-02T15:26:23.635Z,25.67
2018-03-02T15:28:51.150Z,27.87
2018-03-02T15:31:18.658Z,27.60
2018-03-02T15:33:46.164Z,28.00
2018-03-02T15:36:13.679Z,26.20
2018-03-02T15:38:41.222Z,26.23
2018-03-02T15:41:09.523Z,27.97
2018-03-02T15:43:37.047Z,27.33
2018-03-02T15:46:05.338Z,28.30
2018-03-02T15:48:33.682Z,27.30
2018-03-02T15:51:01.994Z,26.37
2018-03-02T15:53:30.280Z,27.17
2018-03-02T15:55:57.846Z,27.90
2018-03-02T15:58:25.375Z,28.43
2018-03-02T16:00:53.680Z,28.07
2018-03-02T16:03:21.210Z,29.20
2018-03-02T16:05:49.502Z,27.63
2018-03-02T16:08:17.803Z,28.00
2018-03-02T16:10:45.342Z,28.00
2018-03-02T16:13:13.674Z,27.60
2018-03-02T16:15:41.207Z,29.50
2018-03-02T16:18:08.734Z,30.90
2018-03-02T16:20:37.144Z,28.77
2018-03-02T16:23:04.675Z,28.17
2018-03-02T16:25:32.202Z,28.23
2018-03-02T16:27:59.758Z,28.23
2018-03-02T16:30:27.249Z,28.23
2018-03-02T16:32:54.812Z,28.87
2018-03-02T16:35:23.100Z,28.67
2018-03-02T16:37:50.635Z,29.70
2018-03-02T16:40:18.919Z,28.43
2018-03-02T16:42:47.208Z,28.63
2018-03-02T16:45:15.508Z,28.07
2018-03-02T16:47:43.043Z,29.60
2018-03-02T16:50:11.320Z,29.03
2018-03-02T16:52:39.598Z,33.13
2018-03-02T16:55:07.900Z,31.20
2018-03-02T16:57:35.401Z,27.70
2018-03-02T17:00:02.907Z,29.40
2018-03-02T17:02:30.476Z,28.27
2018-03-02T17:04:58.004Z,29.23
2018-03-02T17:07:26.279Z,28.80
2018-03-02T17:09:54.592Z,28.70
2018-03-02T17:12:22.145Z,31.27
2018-03-02T17:14:49.675Z,29.80
2018-03-02T17:17:17.954Z,30.23
2018-03-02T17:19:46.219Z,30.23
2018-03-02T17:22:13.739Z,30.40
2018-03-02T17:24:41.280Z,29.83
2018-03-02T17:27:08.783Z,30.00
2018-03-02T17:29:36.321Z,28.40
2018-03-02T17:32:03.832Z,30.60
2018-03-02T17:34:32.181Z,30.63
2018-03-02T17:36:59.676Z,29.87
2018-03-02T17:39:27.221Z,31.23
2018-03-02T17:41:55.578Z,29.10
2018-03-02T17:44:23.094Z,30.27
2018-03-02T17:46:50.628Z,29.80
2018-03-02T17:49:18.958Z,30.40
2018-03-02T17:51:46.462Z,30.40
2018-03-02T17:54:14.791Z,31.47
2018-03-02T17:56:42.283Z,29.50
2018-03-02T17:59:09.949Z,36.37
2018-03-02T18:01:38.255Z,32.50
2018-03-02T18:04:05.766Z,29.97
2018-03-02T18:06:33.288Z,30.37
2018-03-02T18:09:00.785Z,30.97
2018-03-02T18:11:29.085Z,31.73
2018-03-02T18:13:57.423Z,29.13
2018-03-02T18:16:24.967Z,32.17
2018-03-02T18:18:52.466Z,38.00
2018-03-02T18:21:20.066Z,42.13
2018-03-02T18:23:47.584Z,31.70
2018-03-02T18:26:15.913Z,33.77
2018-03-02T18:28:43.422Z,33.83
2018-03-02T18:31:12.430Z,32.80
2018-03-02T18:33:40.725Z,36.57
2018-03-02T18:36:08.238Z,34.20
2018-03-02T18:38:35.767Z,33.07
2018-03-02T18:41:03.267Z,34.47
2018-03-02T18:43:30.863Z,33.47
2018-03-02T18:45:58.374Z,34.73
2018-03-02T18:48:25.903Z,35.87
2018-03-02T18:50:53.405Z,33.60
2018-03-02T18:53:20.926Z,36.93
2018-03-02T18:55:48.423Z,35.20
2018-03-02T18:58:15.928Z,34.43
2018-03-02T19:00:44.486Z,37.73
2018-03-02T19:03:12.760Z,34.93
2018-03-02T19:05:41.460Z,35.43
2018-03-02T19:08:08.993Z,34.90
2018-03-02T19:10:36.517Z,39.93
2018-03-02T19:13:04.034Z,44.67
2018-03-02T19:15:32.319Z,38.30
2018-03-02T19:17:59.834Z,38.97
2018-03-02T19:20:27.387Z,39.57
2018-03-02T19:22:54.928Z,37.20
2018-03-02T19:25:22.473Z,36.07
2018-03-02T19:27:49.978Z,39.43
2018-03-02T19:30:17.493Z,41.80
2018-03-02T19:32:45.018Z,41.20
2018-03-02T19:35:13.296Z,39.30
2018-03-02T19:37:41.640Z,42.87
2018-03-02T19:40:09.141Z,41.43
2018-03-02T19:42:36.683Z,42.03
2018-03-02T19:45:04.966Z,70.73
2018-03-02T19:47:33.250Z,42.87
2018-03-02T19:50:01.526Z,46.00
2018-03-02T19:52:29.822Z,42.43
2018-03-02T19:54:57.334Z,43.07
2018-03-02T19:57:24.951Z,48.47
2018-03-02T19:59:52.517Z,43.10
2018-03-02T20:02:20.060Z,45.67
2018-03-02T20:04:47.633Z,46.70
2018-03-02T20:07:15.152Z,45.97
2018-03-02T20:09:42.756Z,45.20
2018-03-02T20:12:10.282Z,44.40
2018-03-02T20:14:38.610Z,46.20
2018-03-02T20:17:06.165Z,49.50
2018-03-02T20:19:33.736Z,46.80
2018-03-02T20:22:01.280Z,48.27
2018-03-02T20:24:28.905Z,46.97
2018-03-02T20:26:56.472Z,47.67
2018-03-02T20:29:24.044Z,46.93
2018-03-02T20:31:51.550Z,48.10
2018-03-02T20:34:19.085Z,49.20
2018-03-02T20:36:46.645Z,48.83
2018-03-02T20:39:14.206Z,48.87
2018-03-02T20:41:41.731Z,50.23
2018-03-02T20:44:09.284Z,50.57
2018-03-02T20:46:36.831Z,47.00
2018-03-02T20:49:05.108Z,48.33
2018-03-02T20:51:33.394Z,48.10
2018-03-02T20:54:01.665Z,49.93
2018-03-02T20:56:29.994Z,47.70
2018-03-02T20:58:57.552Z,48.73
2018-03-02T21:01:25.108Z,53.07
2018-03-02T21:03:52.622Z,49.13
2018-03-02T21:06:20.905Z,53.00
2018-03-02T21:08:49.269Z,50.23
2018-03-02T21:11:16.780Z,49.27
2018-03-02T21:13:44.318Z,50.37
2018-03-02T21:16:11.864Z,51.73
2018-03-02T21:18:39.553Z,51.90
2018-03-02T21:21:07.110Z,51.97
2018-03-02T21:23:34.672Z,50.47
2018-03-02T21:26:03.243Z,48.90
2018-03-02T21:28:30.783Z,63.63
2018-03-02T21:30:59.069Z,54.10
2018-03-02T21:33:32.442Z,53.60
2018-03-02T21:35:54.899Z,52.80
2018-03-02T21:38:23.197Z,55.03
2018-03-02T21:40:50.730Z,53.03
2018-03-02T21:43:19.004Z,56.47
2018-03-02T21:45:47.299Z,57.03
2018-03-02T21:48:14.814Z,53.83
2018-03-02T21:50:42.340Z,52.50
2018-03-02T21:53:09.847Z,54.10
2018-03-02T21:55:38.303Z,57.60
2018-03-02T21:58:05.821Z,57.43
2018-03-02T22:00:33.510Z,58.17
2018-03-02T22:03:01.020Z,55.90
2018-03-02T22:05:29.306Z,56.03
2018-03-02T22:07:56.844Z,53.43
2018-03-02T22:10:24.366Z,54.97
2018-03-02T22:12:51.895Z,53.17
2018-03-02T22:15:19.424Z,52.10
2018-03-02T22:17:46.941Z,53.40
2018-03-02T22:20:15.231Z,52.80
2018-03-02T22:22:42.779Z,52.10
2018-03-02T22:25:10.302Z,54.77
2018-03-02T22:27:37.822Z,54.83
2018-03-02T22:30:05.349Z,52.30
2018-03-02T22:32:33.970Z,51.20
2018-03-02T22:35:01.590Z,53.40
2018-03-02T22:37:30.129Z,56.57
2018-03-02T22:39:58.433Z,54.80
2018-03-02T22:42:25.962Z,55.63
2018-03-02T22:44:54.985Z,56.40
2018-03-02T22:47:22.513Z,58.43
2018-03-02T22:49:50.034Z,56.87
2018-03-02T22:52:17.550Z,57.90
2018-03-02T22:54:45.842Z,56.07
2018-03-02T22:57:13.419Z,52.43
2018-03-02T22:59:40.927Z,54.87
2018-03-02T23:02:08.453Z,57.00
2018-03-02T23:04:35.963Z,52.50
2018-03-02T23:07:04.246Z,53.07
2018-03-02T23:09:32.514Z,49.93
2018-03-02T23:12:00.802Z,57.00
2018-03-02T23:14:29.070Z,54.50
2018-03-02T23:16:57.362Z,55.30
2018-03-02T23:19:24.884Z,54.47
2018-03-02T23:21:53.900Z,57.90
2018-03-02T23:24:22.190Z,55.20
2018-03-02T23:26:49.710Z,57.40
2018-03-02T23:29:17.226Z,55.47
2018-03-02T23:31:44.749Z,55.93
2018-03-02T23:34:13.034Z,58.80
2018-03-02T23:36:41.315Z,53.70
2018-03-02T23:39:09.612Z,57.03
2018-03-02T23:41:37.127Z,58.40
2018-03-02T23:44:05.425Z,58.60
2018-03-02T23:46:33.698Z,57.40
2018-03-02T23:49:01.980Z,58.27
2018-03-02T23:51:30.259Z,57.47
2018-03-02T23:53:58.538Z,55.07
2018-03-02T23:56:26.847Z,52.73
2018-03-02T23:58:54.364Z,53.37
